sensor_id;sensor_type;location;lat;lon;timestamp;P1;durP1;ratioP1;P2;durP2;ratioP2
42602;SDS011;28233;55.748;48.752;2022-09-12T00:01:29;14.52;;;7.78;;
42602;SDS011;28233;55.748;48.752;2022-09-12T00:03:32;9.70;;;6.28;;
42602;SDS011;28233;55.748;48.752;2022-09-12T00:05:41;11.90;;;6.35;;
42602;SDS011;28233;55.748;48.752;2022-09-12T00:07:45;11.63;;;6.25;;
42602;SDS011;28233;55.748;48.752;2022-09-12T00:09:48;10.23;;;6.38;;
42602;SDS011;28233;55.748;48.752;2022-09-12T00:11:50;12.68;;;7.13;;
42602;SDS011;28233;55.748;48.752;2022-09-12T00:13:56;11.65;;;6.68;;
42602;SDS011;28233;55.748;48.752;2022-09-12T00:16:00;13.23;;;7.32;;
42602;SDS011;28233;55.748;48.752;2022-09-12T00:18:03;16.05;;;6.50;;
42602;SDS011;28233;55.748;48.752;2022-09-12T00:20:06;11.43;;;6.70;;
42602;SDS011;28233;55.748;48.752;2022-09-12T00:22:10;12.75;;;6.43;;
42602;SDS011;28233;55.748;48.752;2022-09-12T00:24:12;13.65;;;6.28;;
42602;SDS011;28233;55.748;48.752;2022-09-12T00:26:16;13.70;;;6.75;;
42602;SDS011;28233;55.748;48.752;2022-09-12T00:28:19;13.55;;;7.68;;
42602;SDS011;28233;55.748;48.752;2022-09-12T00:30:22;14.20;;;7.13;;
42602;SDS011;28233;55.748;48.752;2022-09-12T00:32:25;14.23;;;6.75;;
42602;SDS011;28233;55.748;48.752;2022-09-12T00:34:27;16.52;;;7.75;;
42602;SDS011;28233;55.748;48.752;2022-09-12T00:36:30;12.70;;;5.93;;
42602;SDS011;28233;55.748;48.752;2022-09-12T00:38:32;10.23;;;6.47;;
42602;SDS011;28233;55.748;48.752;2022-09-12T00:40:39;13.10;;;6.45;;
42602;SDS011;28233;55.748;48.752;2022-09-12T00:42:43;12.70;;;6.95;;
42602;SDS011;28233;55.748;48.752;2022-09-12T00:44:47;14.45;;;6.90;;
42602;SDS011;28233;55.748;48.752;2022-09-12T00:46:53;13.82;;;6.53;;
42602;SDS011;28233;55.748;48.752;2022-09-12T00:49:04;13.40;;;6.82;;
42602;SDS011;28233;55.748;48.752;2022-09-12T00:51:15;11.60;;;6.78;;
42602;SDS011;28233;55.748;48.752;2022-09-12T00:53:19;16.10;;;6.93;;
42602;SDS011;28233;55.748;48.752;2022-09-12T00:57:56;12.85;;;6.35;;
42602;SDS011;28233;55.748;48.752;2022-09-12T01:00:05;11.25;;;6.05;;
42602;SDS011;28233;55.748;48.752;2022-09-12T01:02:16;8.10;;;5.78;;
42602;SDS011;28233;55.748;48.752;2022-09-12T01:04:19;9.52;;;5.55;;
42602;SDS011;28233;55.748;48.752;2022-09-12T01:06:25;10.32;;;5.65;;
42602;SDS011;28233;55.748;48.752;2022-09-12T01:08:30;8.05;;;5.90;;
42602;SDS011;28233;55.748;48.752;2022-09-12T01:10:36;13.18;;;6.03;;
42602;SDS011;28233;55.748;48.752;2022-09-12T01:12:41;12.38;;;5.85;;
42602;SDS011;28233;55.748;48.752;2022-09-12T01:14:45;9.25;;;5.57;;
42602;SDS011;28233;55.748;48.752;2022-09-12T01:16:47;11.10;;;6.22;;
42602;SDS011;28233;55.748;48.752;2022-09-12T01:23:56;13.70;;;5.22;;
42602;SDS011;28233;55.748;48.752;2022-09-12T01:35:19;11.32;;;5.85;;
42602;SDS011;28233;55.748;48.752;2022-09-12T01:40:08;10.77;;;6.28;;
42602;SDS011;28233;55.748;48.752;2022-09-12T01:42:32;13.73;;;5.35;;
42602;SDS011;28233;55.748;48.752;2022-09-12T01:44:56;9.00;;;5.78;;
42602;SDS011;28233;55.748;48.752;2022-09-12T01:47:11;9.07;;;5.93;;
42602;SDS011;28233;55.748;48.752;2022-09-12T01:49:21;10.43;;;6.05;;
42602;SDS011;28233;55.748;48.752;2022-09-12T01:51:39;10.27;;;6.25;;
42602;SDS011;28233;55.748;48.752;2022-09-12T01:53:50;7.90;;;5.30;;
42602;SDS011;28233;55.748;48.752;2022-09-12T01:56:16;10.40;;;6.55;;
42602;SDS011;28233;55.748;48.752;2022-09-12T01:58:25;10.13;;;6.80;;
42602;SDS011;28233;55.748;48.752;2022-09-12T02:00:32;8.45;;;5.65;;
42602;SDS011;28233;55.748;48.752;2022-09-12T02:02:39;8.82;;;5.55;;
42602;SDS011;28233;55.748;48.752;2022-09-12T02:05:00;9.60;;;5.68;;
42602;SDS011;28233;55.748;48.752;2022-09-12T02:07:11;13.63;;;6.03;;
42602;SDS011;28233;55.748;48.752;2022-09-12T02:09:20;10.90;;;7.18;;
42602;SDS011;28233;55.748;48.752;2022-09-12T02:11:27;10.43;;;6.13;;
42602;SDS011;28233;55.748;48.752;2022-09-12T02:13:41;7.40;;;5.43;;
42602;SDS011;28233;55.748;48.752;2022-09-12T02:16:13;11.15;;;6.00;;
42602;SDS011;28233;55.748;48.752;2022-09-12T02:18:27;9.68;;;6.05;;
42602;SDS011;28233;55.748;48.752;2022-09-12T02:20:34;10.90;;;5.72;;
42602;SDS011;28233;55.748;48.752;2022-09-12T02:22:49;7.28;;;5.03;;
42602;SDS011;28233;55.748;48.752;2022-09-12T02:24:58;11.55;;;6.00;;
42602;SDS011;28233;55.748;48.752;2022-09-12T02:27:14;10.68;;;5.43;;
42602;SDS011;28233;55.748;48.752;2022-09-12T02:29:40;12.75;;;5.82;;
42602;SDS011;28233;55.748;48.752;2022-09-12T02:31:46;11.43;;;7.15;;
42602;SDS011;28233;55.748;48.752;2022-09-12T02:40:39;9.35;;;4.65;;
42602;SDS011;28233;55.748;48.752;2022-09-12T02:42:42;6.32;;;3.88;;
42602;SDS011;28233;55.748;48.752;2022-09-12T02:44:45;10.18;;;5.47;;
42602;SDS011;28233;55.748;48.752;2022-09-12T02:46:49;5.53;;;4.05;;
42602;SDS011;28233;55.748;48.752;2022-09-12T02:48:56;5.63;;;4.07;;
42602;SDS011;28233;55.748;48.752;2022-09-12T02:50:59;6.10;;;3.60;;
42602;SDS011;28233;55.748;48.752;2022-09-12T02:53:04;6.90;;;3.92;;
42602;SDS011;28233;55.748;48.752;2022-09-12T02:55:09;6.22;;;4.05;;
42602;SDS011;28233;55.748;48.752;2022-09-12T02:57:16;13.90;;;4.03;;
42602;SDS011;28233;55.748;48.752;2022-09-12T02:59:23;8.07;;;3.88;;
42602;SDS011;28233;55.748;48.752;2022-09-12T03:01:28;6.35;;;3.50;;
42602;SDS011;28233;55.748;48.752;2022-09-12T03:05:57;6.75;;;4.10;;
42602;SDS011;28233;55.748;48.752;2022-09-12T03:28:47;3.45;;;2.20;;
42602;SDS011;28233;55.748;48.752;2022-09-12T03:30:51;5.03;;;2.03;;
42602;SDS011;28233;55.748;48.752;2022-09-12T03:32:55;8.90;;;3.13;;
42602;SDS011;28233;55.748;48.752;2022-09-12T03:34:58;4.53;;;2.92;;
42602;SDS011;28233;55.748;48.752;2022-09-12T03:37:01;4.68;;;2.63;;
42602;SDS011;28233;55.748;48.752;2022-09-12T03:39:03;4.43;;;3.00;;
42602;SDS011;28233;55.748;48.752;2022-09-12T03:41:06;3.72;;;2.95;;
42602;SDS011;28233;55.748;48.752;2022-09-12T03:43:09;4.68;;;2.92;;
42602;SDS011;28233;55.748;48.752;2022-09-12T03:45:12;5.15;;;3.03;;
42602;SDS011;28233;55.748;48.752;2022-09-12T03:47:15;6.45;;;4.03;;
42602;SDS011;28233;55.748;48.752;2022-09-12T03:49:17;3.20;;;2.90;;
42602;SDS011;28233;55.748;48.752;2022-09-12T03:51:20;8.27;;;3.63;;
42602;SDS011;28233;55.748;48.752;2022-09-12T03:53:23;6.25;;;3.00;;
42602;SDS011;28233;55.748;48.752;2022-09-12T03:55:25;3.83;;;2.92;;
42602;SDS011;28233;55.748;48.752;2022-09-12T03:57:28;8.38;;;3.05;;
42602;SDS011;28233;55.748;48.752;2022-09-12T03:59:31;5.88;;;3.72;;
42602;SDS011;28233;55.748;48.752;2022-09-12T04:01:34;5.30;;;3.10;;
42602;SDS011;28233;55.748;48.752;2022-09-12T04:03:37;8.60;;;3.50;;
42602;SDS011;28233;55.748;48.752;2022-09-12T04:05:44;5.88;;;3.65;;
42602;SDS011;28233;55.748;48.752;2022-09-12T04:07:48;5.30;;;3.53;;
42602;SDS011;28233;55.748;48.752;2022-09-12T04:09:51;3.90;;;3.10;;
42602;SDS011;28233;55.748;48.752;2022-09-12T04:11:54;7.07;;;3.85;;
42602;SDS011;28233;55.748;48.752;2022-09-12T04:13:57;4.65;;;3.60;;
42602;SDS011;28233;55.748;48.752;2022-09-12T04:15:59;5.47;;;3.50;;
42602;SDS011;28233;55.748;48.752;2022-09-12T04:18:03;9.18;;;3.30;;
42602;SDS011;28233;55.748;48.752;2022-09-12T04:20:07;6.15;;;2.83;;
42602;SDS011;28233;55.748;48.752;2022-09-12T04:22:10;3.35;;;2.50;;
42602;SDS011;28233;55.748;48.752;2022-09-12T04:24:12;5.95;;;3.60;;
42602;SDS011;28233;55.748;48.752;2022-09-12T04:26:16;6.63;;;3.85;;
42602;SDS011;28233;55.748;48.752;2022-09-12T04:28:19;5.07;;;4.00;;
42602;SDS011;28233;55.748;48.752;2022-09-12T04:30:22;6.22;;;3.53;;
42602;SDS011;28233;55.748;48.752;2022-09-12T04:32:25;5.32;;;3.10;;
42602;SDS011;28233;55.748;48.752;2022-09-12T04:34:29;6.05;;;4.13;;
42602;SDS011;28233;55.748;48.752;2022-09-12T04:36:32;6.43;;;3.70;;
42602;SDS011;28233;55.748;48.752;2022-09-12T04:38:35;7.15;;;3.95;;
42602;SDS011;28233;55.748;48.752;2022-09-12T04:40:38;6.82;;;4.28;;
42602;SDS011;28233;55.748;48.752;2022-09-12T04:42:41;6.70;;;4.13;;
42602;SDS011;28233;55.748;48.752;2022-09-12T04:44:44;5.03;;;4.00;;
42602;SDS011;28233;55.748;48.752;2022-09-12T04:46:47;6.28;;;4.07;;
42602;SDS011;28233;55.748;48.752;2022-09-12T04:48:49;5.40;;;3.70;;
42602;SDS011;28233;55.748;48.752;2022-09-12T04:51:14;6.97;;;3.50;;
42602;SDS011;28233;55.748;48.752;2022-09-12T04:53:18;5.65;;;3.15;;
42602;SDS011;28233;55.748;48.752;2022-09-12T04:55:21;6.35;;;4.50;;
42602;SDS011;28233;55.748;48.752;2022-09-12T04:57:26;7.70;;;3.70;;
42602;SDS011;28233;55.748;48.752;2022-09-12T04:59:28;5.97;;;3.95;;
42602;SDS011;28233;55.748;48.752;2022-09-12T05:01:31;5.22;;;3.65;;
42602;SDS011;28233;55.748;48.752;2022-09-12T05:03:34;4.63;;;2.95;;
42602;SDS011;28233;55.748;48.752;2022-09-12T05:05:45;5.35;;;2.95;;
42602;SDS011;28233;55.748;48.752;2022-09-12T05:07:48;5.25;;;2.75;;
42602;SDS011;28233;55.748;48.752;2022-09-12T05:09:50;4.60;;;2.95;;
42602;SDS011;28233;55.748;48.752;2022-09-12T05:11:53;5.35;;;2.80;;
42602;SDS011;28233;55.748;48.752;2022-09-12T05:14:11;2.80;;;1.92;;
42602;SDS011;28233;55.748;48.752;2022-09-12T05:16:14;4.60;;;2.80;;
42602;SDS011;28233;55.748;48.752;2022-09-12T05:18:18;3.53;;;1.70;;
42602;SDS011;28233;55.748;48.752;2022-09-12T05:20:20;3.00;;;2.17;;
42602;SDS011;28233;55.748;48.752;2022-09-12T05:22:23;2.95;;;1.65;;
42602;SDS011;28233;55.748;48.752;2022-09-12T05:24:26;2.05;;;1.60;;
42602;SDS011;28233;55.748;48.752;2022-09-12T05:26:29;3.20;;;1.90;;
42602;SDS011;28233;55.748;48.752;2022-09-12T05:28:33;4.28;;;1.92;;
42602;SDS011;28233;55.748;48.752;2022-09-12T05:30:37;2.72;;;1.52;;
42602;SDS011;28233;55.748;48.752;2022-09-12T05:32:39;2.30;;;1.45;;
42602;SDS011;28233;55.748;48.752;2022-09-12T05:34:42;2.53;;;1.17;;
42602;SDS011;28233;55.748;48.752;2022-09-12T05:36:44;4.50;;;2.10;;
42602;SDS011;28233;55.748;48.752;2022-09-12T05:38:47;6.15;;;1.80;;
42602;SDS011;28233;55.748;48.752;2022-09-12T05:40:50;5.93;;;1.08;;
42602;SDS011;28233;55.748;48.752;2022-09-12T05:42:53;2.58;;;1.52;;
42602;SDS011;28233;55.748;48.752;2022-09-12T05:44:55;1.77;;;1.30;;
42602;SDS011;28233;55.748;48.752;2022-09-12T05:46:58;3.38;;;2.13;;
42602;SDS011;28233;55.748;48.752;2022-09-12T05:49:01;4.45;;;2.33;;
42602;SDS011;28233;55.748;48.752;2022-09-12T05:51:10;7.50;;;2.10;;
42602;SDS011;28233;55.748;48.752;2022-09-12T05:53:14;1.95;;;1.30;;
42602;SDS011;28233;55.748;48.752;2022-09-12T05:55:17;4.70;;;1.65;;
42602;SDS011;28233;55.748;48.752;2022-09-12T05:57:20;2.05;;;1.40;;
42602;SDS011;28233;55.748;48.752;2022-09-12T05:59:23;4.22;;;1.60;;
42602;SDS011;28233;55.748;48.752;2022-09-12T06:01:26;3.85;;;1.83;;
42602;SDS011;28233;55.748;48.752;2022-09-12T06:03:30;4.82;;;2.03;;
42602;SDS011;28233;55.748;48.752;2022-09-12T06:05:33;4.50;;;2.00;;
42602;SDS011;28233;55.748;48.752;2022-09-12T06:07:35;1.75;;;1.40;;
42602;SDS011;28233;55.748;48.752;2022-09-12T06:09:38;3.15;;;1.42;;
42602;SDS011;28233;55.748;48.752;2022-09-12T06:11:41;1.92;;;1.42;;
42602;SDS011;28233;55.748;48.752;2022-09-12T06:13:44;4.63;;;1.50;;
42602;SDS011;28233;55.748;48.752;2022-09-12T06:15:47;3.15;;;2.03;;
42602;SDS011;28233;55.748;48.752;2022-09-12T06:17:49;3.35;;;1.63;;
42602;SDS011;28233;55.748;48.752;2022-09-12T06:19:52;3.53;;;1.80;;
42602;SDS011;28233;55.748;48.752;2022-09-12T06:21:55;3.00;;;1.88;;
42602;SDS011;28233;55.748;48.752;2022-09-12T06:23:58;2.92;;;1.98;;
42602;SDS011;28233;55.748;48.752;2022-09-12T06:26:00;2.78;;;1.55;;
42602;SDS011;28233;55.748;48.752;2022-09-12T06:28:05;5.25;;;1.83;;
42602;SDS011;28233;55.748;48.752;2022-09-12T06:30:07;3.10;;;1.60;;
42602;SDS011;28233;55.748;48.752;2022-09-12T06:32:10;2.75;;;1.60;;
42602;SDS011;28233;55.748;48.752;2022-09-12T06:34:14;2.08;;;1.35;;
42602;SDS011;28233;55.748;48.752;2022-09-12T06:36:21;2.53;;;1.25;;
42602;SDS011;28233;55.748;48.752;2022-09-12T06:38:25;3.42;;;1.52;;
42602;SDS011;28233;55.748;48.752;2022-09-12T06:40:27;2.35;;;1.75;;
42602;SDS011;28233;55.748;48.752;2022-09-12T06:42:30;2.92;;;1.42;;
42602;SDS011;28233;55.748;48.752;2022-09-12T06:44:34;1.38;;;0.88;;
42602;SDS011;28233;55.748;48.752;2022-09-12T06:46:37;3.05;;;1.40;;
42602;SDS011;28233;55.748;48.752;2022-09-12T06:48:39;3.20;;;1.38;;
42602;SDS011;28233;55.748;48.752;2022-09-12T06:50:43;4.00;;;1.23;;
42602;SDS011;28233;55.748;48.752;2022-09-12T06:52:57;2.13;;;1.20;;
42602;SDS011;28233;55.748;48.752;2022-09-12T06:54:59;3.42;;;0.93;;
42602;SDS011;28233;55.748;48.752;2022-09-12T06:57:02;3.72;;;1.08;;
42602;SDS011;28233;55.748;48.752;2022-09-12T06:59:05;3.35;;;0.88;;
42602;SDS011;28233;55.748;48.752;2022-09-12T07:01:14;1.58;;;0.93;;
42602;SDS011;28233;55.748;48.752;2022-09-12T07:03:19;2.50;;;1.02;;
42602;SDS011;28233;55.748;48.752;2022-09-12T07:05:21;1.27;;;0.98;;
42602;SDS011;28233;55.748;48.752;2022-09-12T07:07:25;1.77;;;1.25;;
42602;SDS011;28233;55.748;48.752;2022-09-12T07:09:27;1.02;;;0.90;;
42602;SDS011;28233;55.748;48.752;2022-09-12T07:11:32;2.58;;;1.33;;
42602;SDS011;28233;55.748;48.752;2022-09-12T07:13:38;2.17;;;1.13;;
42602;SDS011;28233;55.748;48.752;2022-09-12T07:15:41;1.17;;;0.88;;
42602;SDS011;28233;55.748;48.752;2022-09-12T07:17:43;2.28;;;1.00;;
42602;SDS011;28233;55.748;48.752;2022-09-12T07:19:46;5.18;;;1.45;;
42602;SDS011;28233;55.748;48.752;2022-09-12T07:21:49;2.38;;;1.05;;
42602;SDS011;28233;55.748;48.752;2022-09-12T07:23:57;0.88;;;0.68;;
42602;SDS011;28233;55.748;48.752;2022-09-12T07:26:00;1.70;;;0.90;;
42602;SDS011;28233;55.748;48.752;2022-09-12T07:28:03;1.23;;;0.60;;
42602;SDS011;28233;55.748;48.752;2022-09-12T07:30:06;1.63;;;0.80;;
42602;SDS011;28233;55.748;48.752;2022-09-12T07:32:09;2.05;;;1.10;;
42602;SDS011;28233;55.748;48.752;2022-09-12T07:34:13;0.95;;;0.80;;
42602;SDS011;28233;55.748;48.752;2022-09-12T07:36:16;3.13;;;1.00;;
42602;SDS011;28233;55.748;48.752;2022-09-12T07:38:21;2.30;;;1.20;;
42602;SDS011;28233;55.748;48.752;2022-09-12T07:40:24;1.40;;;0.68;;
42602;SDS011;28233;55.748;48.752;2022-09-12T07:42:27;1.13;;;0.60;;
42602;SDS011;28233;55.748;48.752;2022-09-12T07:44:51;1.73;;;1.00;;
42602;SDS011;28233;55.748;48.752;2022-09-12T07:46:54;2.35;;;0.80;;
42602;SDS011;28233;55.748;48.752;2022-09-12T07:48:58;1.75;;;0.77;;
42602;SDS011;28233;55.748;48.752;2022-09-12T07:51:05;1.48;;;0.77;;
42602;SDS011;28233;55.748;48.752;2022-09-12T07:53:10;1.00;;;0.68;;
42602;SDS011;28233;55.748;48.752;2022-09-12T07:55:13;1.92;;;0.77;;
42602;SDS011;28233;55.748;48.752;2022-09-12T07:57:15;1.77;;;0.77;;
42602;SDS011;28233;55.748;48.752;2022-09-12T07:59:18;1.70;;;0.80;;
42602;SDS011;28233;55.748;48.752;2022-09-12T08:01:41;2.90;;;0.98;;
42602;SDS011;28233;55.748;48.752;2022-09-12T08:03:45;1.65;;;0.85;;
42602;SDS011;28233;55.748;48.752;2022-09-12T08:05:49;1.17;;;0.50;;
42602;SDS011;28233;55.748;48.752;2022-09-12T08:07:52;2.83;;;0.95;;
42602;SDS011;28233;55.748;48.752;2022-09-12T08:09:58;1.85;;;0.73;;
42602;SDS011;28233;55.748;48.752;2022-09-12T08:12:01;0.95;;;0.70;;
42602;SDS011;28233;55.748;48.752;2022-09-12T08:14:04;1.30;;;0.68;;
42602;SDS011;28233;55.748;48.752;2022-09-12T08:16:11;2.97;;;1.00;;
42602;SDS011;28233;55.748;48.752;2022-09-12T08:18:15;3.22;;;1.13;;
42602;SDS011;28233;55.748;48.752;2022-09-12T08:20:18;3.65;;;0.95;;
42602;SDS011;28233;55.748;48.752;2022-09-12T08:22:20;3.25;;;0.80;;
42602;SDS011;28233;55.748;48.752;2022-09-12T08:24:23;2.28;;;1.10;;
42602;SDS011;28233;55.748;48.752;2022-09-12T08:26:26;2.35;;;1.00;;
42602;SDS011;28233;55.748;48.752;2022-09-12T08:28:29;1.25;;;0.80;;
42602;SDS011;28233;55.748;48.752;2022-09-12T08:30:33;1.83;;;0.77;;
42602;SDS011;28233;55.748;48.752;2022-09-12T08:32:36;3.60;;;1.30;;
42602;SDS011;28233;55.748;48.752;2022-09-12T08:34:38;1.10;;;0.80;;
42602;SDS011;28233;55.748;48.752;2022-09-12T08:36:41;2.10;;;0.70;;
42602;SDS011;28233;55.748;48.752;2022-09-12T08:38:44;3.80;;;0.65;;
42602;SDS011;28233;55.748;48.752;2022-09-12T08:40:51;1.98;;;0.90;;
42602;SDS011;28233;55.748;48.752;2022-09-12T08:43:02;1.60;;;1.08;;
42602;SDS011;28233;55.748;48.752;2022-09-12T08:45:17;1.92;;;1.20;;
42602;SDS011;28233;55.748;48.752;2022-09-12T08:47:26;2.65;;;0.77;;
42602;SDS011;28233;55.748;48.752;2022-09-12T08:49:34;1.98;;;1.13;;
42602;SDS011;28233;55.748;48.752;2022-09-12T08:51:45;2.55;;;0.85;;
42602;SDS011;28233;55.748;48.752;2022-09-12T08:53:49;1.73;;;0.98;;
42602;SDS011;28233;55.748;48.752;2022-09-12T08:55:56;1.75;;;1.08;;
42602;SDS011;28233;55.748;48.752;2022-09-12T08:58:04;3.08;;;0.95;;
42602;SDS011;28233;55.748;48.752;2022-09-12T09:00:19;2.92;;;1.20;;
42602;SDS011;28233;55.748;48.752;2022-09-12T09:11:20;3.75;;;1.40;;
42602;SDS011;28233;55.748;48.752;2022-09-12T09:16:11;5.95;;;1.13;;
42602;SDS011;28233;55.748;48.752;2022-09-12T09:18:23;2.88;;;1.17;;
42602;SDS011;28233;55.748;48.752;2022-09-12T09:20:45;1.88;;;1.15;;
42602;SDS011;28233;55.748;48.752;2022-09-12T09:25:20;3.00;;;1.55;;
42602;SDS011;28233;55.748;48.752;2022-09-12T09:29:50;3.20;;;1.17;;
42602;SDS011;28233;55.748;48.752;2022-09-12T09:31:57;4.30;;;1.77;;
42602;SDS011;28233;55.748;48.752;2022-09-12T09:34:04;2.10;;;1.50;;
42602;SDS011;28233;55.748;48.752;2022-09-12T09:36:21;4.50;;;1.67;;
42602;SDS011;28233;55.748;48.752;2022-09-12T09:40:40;3.33;;;1.88;;
42602;SDS011;28233;55.748;48.752;2022-09-12T09:43:05;2.20;;;1.35;;
42602;SDS011;28233;55.748;48.752;2022-09-12T09:45:22;3.92;;;2.30;;
42602;SDS011;28233;55.748;48.752;2022-09-12T09:47:26;3.67;;;1.80;;
42602;SDS011;28233;55.748;48.752;2022-09-12T09:49:30;2.53;;;2.05;;
42602;SDS011;28233;55.748;48.752;2022-09-12T09:51:37;3.00;;;1.90;;
42602;SDS011;28233;55.748;48.752;2022-09-12T09:53:46;3.45;;;2.03;;
42602;SDS011;28233;55.748;48.752;2022-09-12T09:55:58;3.28;;;2.45;;
42602;SDS011;28233;55.748;48.752;2022-09-12T09:58:03;4.63;;;2.65;;
42602;SDS011;28233;55.748;48.752;2022-09-12T10:00:23;3.47;;;2.65;;
42602;SDS011;28233;55.748;48.752;2022-09-12T10:02:31;3.45;;;2.80;;
42602;SDS011;28233;55.748;48.752;2022-09-12T10:04:35;5.40;;;2.95;;
42602;SDS011;28233;55.748;48.752;2022-09-12T10:06:42;2.33;;;2.10;;
42602;SDS011;28233;55.748;48.752;2022-09-12T10:08:45;3.22;;;2.40;;
42602;SDS011;28233;55.748;48.752;2022-09-12T10:10:56;3.83;;;2.22;;
42602;SDS011;28233;55.748;48.752;2022-09-12T10:13:20;3.05;;;2.10;;
42602;SDS011;28233;55.748;48.752;2022-09-12T10:16:01;6.35;;;2.55;;
42602;SDS011;28233;55.748;48.752;2022-09-12T10:18:06;3.42;;;2.88;;
42602;SDS011;28233;55.748;48.752;2022-09-12T10:22:33;6.22;;;2.40;;
42602;SDS011;28233;55.748;48.752;2022-09-12T10:24:36;5.00;;;2.42;;
42602;SDS011;28233;55.748;48.752;2022-09-12T10:26:43;4.75;;;2.60;;
42602;SDS011;28233;55.748;48.752;2022-09-12T10:28:50;5.70;;;2.45;;
42602;SDS011;28233;55.748;48.752;2022-09-12T10:30:55;5.82;;;2.15;;
42602;SDS011;28233;55.748;48.752;2022-09-12T10:33:07;3.38;;;2.60;;
42602;SDS011;28233;55.748;48.752;2022-09-12T10:35:20;8.75;;;2.20;;
42602;SDS011;28233;55.748;48.752;2022-09-12T10:37:27;2.97;;;2.22;;
42602;SDS011;28233;55.748;48.752;2022-09-12T10:39:36;5.85;;;2.55;;
42602;SDS011;28233;55.748;48.752;2022-09-12T10:41:39;4.40;;;2.78;;
42602;SDS011;28233;55.748;48.752;2022-09-12T10:43:42;3.83;;;2.50;;
42602;SDS011;28233;55.748;48.752;2022-09-12T10:45:46;6.13;;;3.20;;
42602;SDS011;28233;55.748;48.752;2022-09-12T10:47:49;5.10;;;2.55;;
42602;SDS011;28233;55.748;48.752;2022-09-12T10:49:52;5.03;;;2.42;;
42602;SDS011;28233;55.748;48.752;2022-09-12T10:52:24;14.60;;;2.67;;
42602;SDS011;28233;55.748;48.752;2022-09-12T10:54:26;4.45;;;2.58;;
42602;SDS011;28233;55.748;48.752;2022-09-12T10:56:30;4.40;;;2.60;;
42602;SDS011;28233;55.748;48.752;2022-09-12T11:05:55;4.63;;;2.97;;
42602;SDS011;28233;55.748;48.752;2022-09-12T11:26:53;4.50;;;2.35;;
42602;SDS011;28233;55.748;48.752;2022-09-12T11:33:59;5.25;;;2.40;;
42602;SDS011;28233;55.748;48.752;2022-09-12T11:39:23;4.78;;;2.72;;
42602;SDS011;28233;55.748;48.752;2022-09-12T11:41:24;4.30;;;2.33;;
42602;SDS011;28233;55.748;48.752;2022-09-12T11:45:44;11.65;;;2.92;;
42602;SDS011;28233;55.748;48.752;2022-09-12T11:47:50;5.40;;;2.80;;
42602;SDS011;28233;55.748;48.752;2022-09-12T11:49:56;5.40;;;2.45;;
42602;SDS011;28233;55.748;48.752;2022-09-12T11:56:33;6.43;;;2.42;;
42602;SDS011;28233;55.748;48.752;2022-09-12T11:58:40;6.55;;;2.75;;
42602;SDS011;28233;55.748;48.752;2022-09-12T12:00:49;5.80;;;2.35;;
42602;SDS011;28233;55.748;48.752;2022-09-12T12:03:01;5.88;;;2.35;;
42602;SDS011;28233;55.748;48.752;2022-09-12T12:05:16;5.47;;;1.98;;
42602;SDS011;28233;55.748;48.752;2022-09-12T12:07:25;2.63;;;1.73;;
42602;SDS011;28233;55.748;48.752;2022-09-12T12:09:49;2.95;;;2.05;;
42602;SDS011;28233;55.748;48.752;2022-09-12T12:11:54;3.95;;;1.65;;
42602;SDS011;28233;55.748;48.752;2022-09-12T12:14:00;9.00;;;2.35;;
42602;SDS011;28233;55.748;48.752;2022-09-12T12:16:07;3.15;;;1.60;;
42602;SDS011;28233;55.748;48.752;2022-09-12T12:18:24;4.07;;;1.83;;
42602;SDS011;28233;55.748;48.752;2022-09-12T12:20:28;4.03;;;1.70;;
42602;SDS011;28233;55.748;48.752;2022-09-12T12:22:31;3.05;;;1.67;;
42602;SDS011;28233;55.748;48.752;2022-09-12T12:24:34;6.35;;;2.10;;
42602;SDS011;28233;55.748;48.752;2022-09-12T12:27:11;4.05;;;1.65;;
42602;SDS011;28233;55.748;48.752;2022-09-12T12:29:36;4.90;;;1.83;;
42602;SDS011;28233;55.748;48.752;2022-09-12T12:34:18;2.65;;;1.45;;
42602;SDS011;28233;55.748;48.752;2022-09-12T12:36:34;1.75;;;1.15;;
42602;SDS011;28233;55.748;48.752;2022-09-12T12:38:38;8.23;;;1.50;;
42602;SDS011;28233;55.748;48.752;2022-09-12T12:40:42;2.50;;;1.10;;
42602;SDS011;28233;55.748;48.752;2022-09-12T12:44:48;2.53;;;1.20;;
42602;SDS011;28233;55.748;48.752;2022-09-12T12:49:21;2.95;;;1.27;;
42602;SDS011;28233;55.748;48.752;2022-09-12T12:53:45;2.53;;;0.95;;
42602;SDS011;28233;55.748;48.752;2022-09-12T12:55:49;3.08;;;1.38;;
42602;SDS011;28233;55.748;48.752;2022-09-12T12:58:02;2.08;;;1.20;;
42602;SDS011;28233;55.748;48.752;2022-09-12T13:00:24;3.17;;;1.42;;
42602;SDS011;28233;55.748;48.752;2022-09-12T13:02:30;4.00;;;1.83;;
42602;SDS011;28233;55.748;48.752;2022-09-12T13:04:39;2.45;;;1.65;;
42602;SDS011;28233;55.748;48.752;2022-09-12T13:06:54;3.00;;;1.98;;
42602;SDS011;28233;55.748;48.752;2022-09-12T13:09:02;2.20;;;1.70;;
42602;SDS011;28233;55.748;48.752;2022-09-12T13:11:15;6.30;;;1.85;;
42602;SDS011;28233;55.748;48.752;2022-09-12T13:13:39;2.13;;;1.27;;
42602;SDS011;28233;55.748;48.752;2022-09-12T13:15:49;6.78;;;1.80;;
42602;SDS011;28233;55.748;48.752;2022-09-12T13:17:53;4.63;;;2.33;;
42602;SDS011;28233;55.748;48.752;2022-09-12T13:22:41;3.65;;;2.22;;
42602;SDS011;28233;55.748;48.752;2022-09-12T13:24:46;3.03;;;1.42;;
42602;SDS011;28233;55.748;48.752;2022-09-12T13:26:50;9.10;;;2.03;;
42602;SDS011;28233;55.748;48.752;2022-09-12T13:29:11;3.97;;;1.80;;
42602;SDS011;28233;55.748;48.752;2022-09-12T13:31:24;3.03;;;2.00;;
42602;SDS011;28233;55.748;48.752;2022-09-12T13:33:35;3.33;;;1.85;;
42602;SDS011;28233;55.748;48.752;2022-09-12T13:38:09;11.25;;;2.22;;
42602;SDS011;28233;55.748;48.752;2022-09-12T13:42:48;7.57;;;2.40;;
42602;SDS011;28233;55.748;48.752;2022-09-12T13:44:59;6.80;;;2.42;;
42602;SDS011;28233;55.748;48.752;2022-09-12T13:47:06;4.07;;;1.88;;
42602;SDS011;28233;55.748;48.752;2022-09-12T13:51:28;3.53;;;1.67;;
42602;SDS011;28233;55.748;48.752;2022-09-12T13:53:43;4.72;;;1.73;;
42602;SDS011;28233;55.748;48.752;2022-09-12T13:55:51;2.90;;;1.85;;
42602;SDS011;28233;55.748;48.752;2022-09-12T13:57:58;2.38;;;1.60;;
42602;SDS011;28233;55.748;48.752;2022-09-12T14:00:10;7.00;;;2.08;;
42602;SDS011;28233;55.748;48.752;2022-09-12T14:02:21;4.47;;;2.00;;
42602;SDS011;28233;55.748;48.752;2022-09-12T14:04:26;4.50;;;1.92;;
42602;SDS011;28233;55.748;48.752;2022-09-12T14:06:48;6.43;;;2.13;;
42602;SDS011;28233;55.748;48.752;2022-09-12T14:08:53;6.90;;;1.77;;
42602;SDS011;28233;55.748;48.752;2022-09-12T14:11:06;5.00;;;2.13;;
42602;SDS011;28233;55.748;48.752;2022-09-12T14:13:20;11.80;;;1.73;;
42602;SDS011;28233;55.748;48.752;2022-09-12T14:15:27;7.38;;;2.65;;
42602;SDS011;28233;55.748;48.752;2022-09-12T14:17:33;5.47;;;1.98;;
42602;SDS011;28233;55.748;48.752;2022-09-12T14:19:37;2.67;;;1.40;;
42602;SDS011;28233;55.748;48.752;2022-09-12T14:21:40;6.55;;;1.50;;
42602;SDS011;28233;55.748;48.752;2022-09-12T14:23:43;6.10;;;1.38;;
42602;SDS011;28233;55.748;48.752;2022-09-12T14:25:49;7.18;;;1.92;;
42602;SDS011;28233;55.748;48.752;2022-09-12T14:27:53;5.35;;;1.63;;
42602;SDS011;28233;55.748;48.752;2022-09-12T14:30:02;2.00;;;1.17;;
42602;SDS011;28233;55.748;48.752;2022-09-12T14:32:24;2.63;;;1.58;;
42602;SDS011;28233;55.748;48.752;2022-09-12T14:34:27;8.98;;;1.23;;
42602;SDS011;28233;55.748;48.752;2022-09-12T14:36:33;3.22;;;1.40;;
42602;SDS011;28233;55.748;48.752;2022-09-12T14:38:43;3.65;;;1.80;;
42602;SDS011;28233;55.748;48.752;2022-09-12T14:40:52;4.45;;;1.30;;
42602;SDS011;28233;55.748;48.752;2022-09-12T14:43:02;5.25;;;1.30;;